ENRA/MQN METAR and TAF weather

Enter ICAO airport designator
Station Type Date Time Source
ENRA METAR 2020/04/03 08:50 UTC NOAA

ENRA 030850Z 25006KT 9999 -SHSN SCT040 BKN060 M01/M07 Q0985


Station Type Date Time Source
ENRA Decoded METAR 2020/04/03 08:50 UTC NOAA

Mo I Rana / Rossvoll, Norway (ENRA) 66-22N 014-18E 70M
Apr 03, 2020 - 04:50 AM EDT / 2020.04.03 0850 UTC
Wind: from the WSW (250 degrees) at 7 MPH (6 KT):0
Visibility: greater than 7 mile(s):0
Sky conditions: mostly cloudy
Weather: light snow showers
Temperature: 30 F (-1 C)
Windchill: 23 F (-5 C):1
Dew Point: 19 F (-7 C)
Relative Humidity: 63%
Pressure (altimeter): 29.09 in. Hg (0985 hPa)
ob: ENRA 030850Z 25006KT 9999 -SHSN SCT040 BKN060 M01/M07 Q0985
cycle: 9

Station Type Date Time Source
ENRA TAF UTC NOAA

Error!

Example: see airport list